Time;durP1;ratioP1;P1;durP2;ratioP2;P2;SDS_P1;SDS_P2;PMS_P1;PMS_P2;Temp;Humidity;BMP_temperature;BMP_pressure;BME280_temperature;BME280_humidity;BME280_pressure;Samples;Min_cycle;Max_cycle;Signal;HPM_P1;HPM_P2
2023/08/28 00:00:43;;;;;;;7.85;6.95;;;14.80;99.90;;;;;;5003507;28;20422;-88
2023/08/28 00:03:09;;;;;;;9.30;6.43;;;14.80;99.90;;;;;;4999991;28;20056;-87
2023/08/28 00:05:37;;;;;;;9.52;6.80;;;14.80;99.90;;;;;;5001396;28;20187;-88
2023/08/28 00:08:05;;;;;;;6.30;5.78;;;14.80;99.90;;;;;;4984205;28;20061;-88
2023/08/28 00:10:35;;;;;;;8.02;7.32;;;14.80;99.90;;;;;;4999386;28;20466;-88
2023/08/28 00:13:02;;;;;;;9.05;8.10;;;14.80;99.90;;;;;;5001520;28;20137;-87
2023/08/28 00:15:30;;;;;;;12.15;8.43;;;14.80;99.90;;;;;;4998476;28;20056;-87
2023/08/28 00:17:57;;;;;;;9.38;8.48;;;14.90;99.90;;;;;;4999921;28;20514;-87
2023/08/28 00:20:24;;;;;;;8.50;6.93;;;14.80;99.90;;;;;;4999877;28;20061;-87
2023/08/28 00:22:51;;;;;;;9.45;7.25;;;14.80;99.90;;;;;;5002586;28;20054;-88
2023/08/28 00:25:20;;;;;;;8.90;7.35;;;14.90;99.90;;;;;;4984214;28;20430;-88
2023/08/28 00:27:47;;;;;;;10.07;7.65;;;14.90;99.90;;;;;;4999219;28;20050;-88
2023/08/28 00:30:14;;;;;;;7.78;7.05;;;14.90;99.90;;;;;;5000619;28;20054;-89
2023/08/28 00:32:41;;;;;;;8.32;7.40;;;14.90;99.90;;;;;;4996300;28;20530;-89
2023/08/28 00:35:08;;;;;;;8.82;7.93;;;14.90;99.90;;;;;;5001028;28;20395;-88
2023/08/28 00:37:35;;;;;;;13.00;9.48;;;14.90;99.90;;;;;;4984451;28;20295;-88
2023/08/28 00:40:03;;;;;;;9.25;8.32;;;14.90;99.90;;;;;;4998254;28;20061;-88
2023/08/28 00:42:30;;;;;;;10.80;8.27;;;14.90;99.90;;;;;;4996665;28;20056;-88
2023/08/28 00:44:57;;;;;;;9.32;8.43;;;14.90;99.90;;;;;;4984285;28;20848;-87
2023/08/28 00:47:25;;;;;;;10.38;9.32;;;14.90;99.90;;;;;;4998159;28;20105;-88
2023/08/28 00:49:52;;;;;;;11.38;10.18;;;14.90;99.90;;;;;;5001063;28;20037;-87
2023/08/28 00:52:19;;;;;;;10.32;9.38;;;14.90;99.90;;;;;;5000997;28;20435;-88
2023/08/28 00:54:47;;;;;;;9.63;7.47;;;14.90;99.90;;;;;;5000181;28;20749;-87
2023/08/28 00:57:17;;;;;;;11.70;9.15;;;14.90;99.90;;;;;;4998890;28;20519;-87
2023/08/28 00:59:45;;;;;;;11.77;8.77;;;14.90;99.90;;;;;;4997320;28;20132;-88
2023/08/28 01:02:12;;;;;;;12.73;10.07;;;14.90;99.90;;;;;;4994094;28;20049;-88
2023/08/28 01:04:39;;;;;;;11.32;10.23;;;14.90;99.90;;;;;;5000692;28;20053;-87
2023/08/28 01:07:25;;;;;;;13.68;10.30;;;14.90;99.90;;;;;;5001529;28;20058;-87
2023/08/28 01:09:53;;;;;;;12.55;11.35;;;14.90;99.90;;;;;;5000767;28;20063;-88
2023/08/28 01:12:44;;;;;;;13.65;10.65;;;14.90;99.90;;;;;;4998995;28;20048;-88
2023/08/28 01:15:23;;;;;;;12.85;9.23;;;14.90;99.90;;;;;;4998704;28;20048;-88
2023/08/28 01:18:00;;;;;;;13.73;9.65;;;15.00;99.90;;;;;;4999117;28;20042;-88
2023/08/28 01:20:30;;;;;;;9.27;8.38;;;14.90;99.90;;;;;;4999541;28;20054;-88
2023/08/28 01:23:12;;;;;;;12.05;10.38;;;14.90;99.90;;;;;;4999633;28;20517;-88
2023/08/28 01:25:39;;;;;;;10.40;9.23;;;15.00;99.90;;;;;;5000708;28;20049;-88
2023/08/28 01:28:08;;;;;;;10.10;9.10;;;15.00;99.90;;;;;;5000020;28;20506;-88
2023/08/28 01:30:35;;;;;;;10.88;8.02;;;15.00;99.90;;;;;;4995639;28;20050;-89
2023/08/28 01:33:02;;;;;;;10.85;9.85;;;15.00;99.90;;;;;;4999873;28;20056;-87
2023/08/28 01:35:32;;;;;;;12.20;9.30;;;15.00;99.90;;;;;;5000243;28;20041;-88
2023/08/28 01:38:19;;;;;;;11.30;10.20;;;15.10;99.90;;;;;;4999309;28;20046;-88
2023/08/28 01:40:59;;;;;;;11.48;9.13;;;15.10;99.90;;;;;;5012950;28;20064;-87
2023/08/28 01:43:35;;;;;;;15.48;10.65;;;15.00;99.90;;;;;;4998535;28;20049;-87
2023/08/28 01:46:02;;;;;;;11.75;9.20;;;15.10;99.90;;;;;;5004033;28;20377;-88
2023/08/28 01:48:37;;;;;;;16.27;11.63;;;15.10;99.90;;;;;;4995745;28;20132;-88
2023/08/28 01:51:04;;;;;;;12.90;9.93;;;15.00;99.90;;;;;;5013282;28;20487;-88
2023/08/28 01:53:33;;;;;;;10.95;9.52;;;15.00;99.90;;;;;;4998756;28;20486;-87
2023/08/28 01:56:09;;;;;;;11.35;10.15;;;15.00;99.90;;;;;;4984883;28;20042;-88
2023/08/28 01:58:39;;;;;;;10.50;9.45;;;15.00;99.90;;;;;;4982999;28;20049;-87
2023/08/28 02:01:07;;;;;;;;;;;15.00;99.90;;;;;;4998774;28;20037;-88
2023/08/28 02:03:34;;;;;;;12.40;11.23;;;15.00;99.90;;;;;;4996665;28;21506;-88
2023/08/28 02:06:01;;;;;;;8.68;7.75;;;15.00;99.90;;;;;;5016332;28;20050;-88
2023/08/28 02:08:28;;;;;;;12.02;9.30;;;15.00;99.90;;;;;;4999407;28;20046;-88
2023/08/28 02:10:55;;;;;;;10.95;9.73;;;15.00;99.90;;;;;;4984042;28;20038;-88
2023/08/28 02:13:22;;;;;;;9.65;8.73;;;14.90;99.90;;;;;;5000343;28;20099;-88
2023/08/28 02:15:49;;;;;;;9.75;8.48;;;14.90;99.90;;;;;;4998132;28;20045;-89
2023/08/28 02:18:16;;;;;;;10.15;8.80;;;14.90;99.90;;;;;;4994580;28;20566;-88
2023/08/28 02:20:44;;;;;;;10.68;9.75;;;14.90;99.90;;;;;;4998711;28;20034;-88
2023/08/28 02:23:11;;;;;;;10.43;9.43;;;14.90;99.90;;;;;;4980355;28;20050;-89
2023/08/28 02:25:47;;;;;;;9.55;8.48;;;14.90;99.90;;;;;;5013949;28;20480;-88
2023/08/28 02:28:15;;;;;;;8.80;8.00;;;14.90;99.90;;;;;;4998515;28;20054;-88
2023/08/28 02:30:42;;;;;;;8.48;7.68;;;14.90;99.90;;;;;;4998673;28;20034;-88
2023/08/28 02:33:10;;;;;;;10.85;9.50;;;14.90;99.90;;;;;;4993894;28;20037;-88
2023/08/28 02:35:37;;;;;;;8.60;7.65;;;14.90;99.90;;;;;;4994010;28;20058;-89
2023/08/28 02:38:08;;;;;;;10.77;9.20;;;14.90;99.90;;;;;;4994425;28;20073;-88
2023/08/28 02:40:39;;;;;;;10.77;9.30;;;14.90;99.90;;;;;;4999659;28;20046;-89
2023/08/28 02:43:06;;;;;;;10.52;9.43;;;14.90;99.90;;;;;;5000272;28;20057;-89
2023/08/28 02:45:35;;;;;;;11.20;9.10;;;14.90;99.90;;;;;;4997693;28;20081;-90
2023/08/28 02:48:03;;;;;;;11.40;10.30;;;14.90;99.90;;;;;;4995485;28;20049;-90
2023/08/28 02:50:31;;;;;;;10.65;8.52;;;14.90;99.90;;;;;;4979534;28;20042;-90
2023/08/28 02:52:58;;;;;;;10.35;9.35;;;14.90;99.90;;;;;;4997453;28;20133;-91
2023/08/28 02:55:39;;;;;;;;;;;14.80;99.90;;;;;;5000791;28;20050;-91
2023/08/28 02:58:09;;;;;;;10.05;8.13;;;14.80;99.90;;;;;;5001003;28;19964;-91
2023/08/28 03:00:41;;;;;;;9.35;8.30;;;14.80;99.90;;;;;;4988029;28;20459;-91
2023/08/28 03:03:09;;;;;;;15.15;9.02;;;14.80;99.90;;;;;;5003774;28;20502;-91
2023/08/28 03:05:37;;;;;;;13.48;8.63;;;14.80;99.90;;;;;;5000707;28;20046;-91
2023/08/28 03:08:07;;;;;;;10.43;9.32;;;14.80;99.90;;;;;;5002005;28;20401;-91
2023/08/28 03:10:34;;;;;;;8.98;8.07;;;14.80;99.90;;;;;;4987613;28;20066;-91
2023/08/28 03:13:02;;;;;;;9.10;8.30;;;14.80;99.90;;;;;;5002445;28;20530;-91
2023/08/28 03:15:31;;;;;;;9.05;8.18;;;14.80;99.90;;;;;;5007478;28;20046;-91
2023/08/28 03:17:58;;;;;;;9.73;7.85;;;14.80;99.90;;;;;;5005991;28;20042;-91
2023/08/28 03:20:26;;;;;;;8.80;7.95;;;14.70;99.90;;;;;;5007942;28;20061;-91
2023/08/28 03:22:55;;;;;;;8.48;7.68;;;14.70;99.90;;;;;;5005370;28;20147;-92
2023/08/28 03:25:23;;;;;;;9.73;8.73;;;14.70;99.90;;;;;;4996405;28;20049;-91
2023/08/28 03:27:50;;;;;;;10.60;9.60;;;14.70;99.90;;;;;;5025329;28;20049;-91
2023/08/28 03:30:17;;;;;;;10.02;9.02;;;14.70;99.90;;;;;;5009065;28;20065;-92
2023/08/28 03:32:44;;;;;;;9.55;8.68;;;14.70;99.90;;;;;;5024179;28;20450;-92
2023/08/28 03:35:11;;;;;;;11.15;10.05;;;14.70;99.90;;;;;;5010050;28;20073;-92
2023/08/28 03:37:38;;;;;;;10.75;7.57;;;14.70;99.90;;;;;;5006518;28;20038;-92
2023/08/28 03:40:07;;;;;;;8.82;7.95;;;14.70;99.90;;;;;;5005808;28;20034;-91
2023/08/28 03:42:34;;;;;;;8.65;7.75;;;14.60;99.90;;;;;;5005603;28;20353;-92
2023/08/28 03:45:01;;;;;;;8.73;7.80;;;14.60;99.90;;;;;;5007402;28;20056;-92
2023/08/28 03:47:29;;;;;;;8.18;7.43;;;14.60;99.90;;;;;;4989238;28;20050;-92
2023/08/28 03:49:58;;;;;;;11.20;10.15;;;14.60;99.90;;;;;;5008679;28;21230;-93
2023/08/28 03:52:27;;;;;;;9.52;7.40;;;14.60;99.90;;;;;;5006831;23;20061;-62
2023/08/28 03:54:54;;;;;;;9.25;8.32;;;14.60;99.90;;;;;;5019191;28;20046;-64
2023/08/28 03:57:23;;;;;;;9.60;7.80;;;14.60;99.90;;;;;;5006426;28;20049;-63
2023/08/28 03:59:50;;;;;;;10.25;7.35;;;14.60;99.90;;;;;;5005599;28;20046;-70
2023/08/28 04:02:16;;;;;;;9.18;7.63;;;14.60;99.90;;;;;;5019278;28;20396;-64
2023/08/28 04:04:43;;;;;;;9.52;8.30;;;14.50;99.90;;;;;;5022911;28;20045;-68
2023/08/28 04:07:24;;;;;;;;;;;14.60;99.90;;;;;;5008761;28;20033;-64
2023/08/28 04:09:53;;;;;;;9.23;8.38;;;14.50;99.90;;;;;;5001802;28;20290;-66
2023/08/28 04:12:20;;;;;;;9.80;8.55;;;14.50;99.90;;;;;;5003488;28;20048;-70
2023/08/28 04:14:48;;;;;;;11.02;8.13;;;14.50;99.90;;;;;;5006006;28;20076;-69
2023/08/28 04:17:16;;;;;;;8.90;8.07;;;14.50;99.90;;;;;;5007190;28;20045;-69
2023/08/28 04:19:43;;;;;;;11.98;8.93;;;14.50;99.90;;;;;;5007108;28;20218;-66
2023/08/28 04:22:10;;;;;;;10.77;9.77;;;14.50;99.90;;;;;;5004524;28;20050;-69
2023/08/28 04:24:38;;;;;;;12.65;9.63;;;14.50;99.90;;;;;;5006158;28;20046;-71
2023/08/28 04:27:05;;;;;;;9.57;8.60;;;14.40;99.90;;;;;;5003252;28;20054;-68
2023/08/28 04:29:32;;;;;;;10.23;8.05;;;14.50;99.90;;;;;;5004836;28;20535;-63
2023/08/28 04:31:59;;;;;;;11.13;9.75;;;14.40;99.90;;;;;;5022264;28;20072;-70
2023/08/28 04:34:26;;;;;;;9.80;8.23;;;14.50;99.90;;;;;;5006240;28;20136;-66
2023/08/28 04:36:53;;;;;;;8.88;8.07;;;14.40;99.90;;;;;;5005383;28;20050;-63
2023/08/28 04:39:22;;;;;;;9.38;8.23;;;14.40;99.90;;;;;;5005237;28;20092;-63
2023/08/28 04:41:52;;;;;;;9.27;8.43;;;14.40;99.90;;;;;;5004128;28;20091;-70
2023/08/28 04:44:19;;;;;;;10.75;8.20;;;14.40;99.90;;;;;;5006707;28;20675;-65
2023/08/28 04:46:47;;;;;;;11.20;10.05;;;14.40;99.90;;;;;;5006424;28;20037;-64
2023/08/28 04:49:15;;;;;;;9.15;8.30;;;14.40;99.90;;;;;;5004006;28;20041;-62
2023/08/28 04:51:42;;;;;;;11.00;9.93;;;14.40;99.90;;;;;;5021277;28;21388;-66
2023/08/28 04:54:09;;;;;;;12.77;8.55;;;14.40;99.90;;;;;;5002787;28;21606;-65
2023/08/28 04:56:37;;;;;;;8.52;7.50;;;14.40;99.90;;;;;;5019508;28;20054;-64
2023/08/28 04:59:04;;;;;;;8.25;7.45;;;14.40;99.90;;;;;;5015989;28;20053;-66
2023/08/28 05:01:31;;;;;;;9.00;7.95;;;14.40;99.90;;;;;;5002539;28;20065;-63
2023/08/28 05:03:59;;;;;;;9.80;7.45;;;14.40;99.90;;;;;;5005024;28;20538;-64
2023/08/28 05:06:26;;;;;;;10.95;8.73;;;14.30;99.90;;;;;;5019180;28;20069;-63
2023/08/28 05:08:53;;;;;;;9.60;8.65;;;14.30;99.90;;;;;;5005837;28;20834;-64
2023/08/28 05:11:20;;;;;;;10.60;9.48;;;14.30;99.90;;;;;;5006015;28;20456;-65
2023/08/28 05:13:47;;;;;;;10.50;8.50;;;14.30;99.90;;;;;;5016955;28;20058;-69
2023/08/28 05:16:14;;;;;;;11.80;8.95;;;14.30;99.90;;;;;;5005134;28;20071;-63
2023/08/28 05:18:41;;;;;;;8.85;8.05;;;14.30;99.90;;;;;;5005708;28;20038;-69
2023/08/28 05:21:09;;;;;;;10.18;8.23;;;14.30;99.90;;;;;;5005746;28;20049;-71
2023/08/28 05:23:36;;;;;;;13.50;8.35;;;14.30;99.90;;;;;;5000935;28;20493;-62
2023/08/28 05:26:03;;;;;;;9.57;8.65;;;14.30;99.90;;;;;;5004531;28;20037;-66
2023/08/28 05:28:35;;;;;;;9.23;7.95;;;14.30;99.90;;;;;;5007849;28;20127;-64
2023/08/28 05:31:03;;;;;;;9.60;8.70;;;14.30;99.90;;;;;;5002430;28;20038;-63
2023/08/28 05:33:30;;;;;;;9.35;8.40;;;14.30;99.90;;;;;;5007043;28;20045;-68
2023/08/28 05:35:58;;;;;;;8.93;8.13;;;14.30;99.90;;;;;;5019122;28;20056;-63
2023/08/28 05:38:25;;;;;;;7.97;7.28;;;14.40;99.90;;;;;;5006407;28;20081;-65
2023/08/28 05:40:52;;;;;;;8.70;6.80;;;14.30;99.90;;;;;;5021581;28;20042;-71
2023/08/28 05:43:19;;;;;;;8.52;6.63;;;14.40;99.90;;;;;;5000125;28;20050;-65
2023/08/28 05:45:47;;;;;;;6.90;6.30;;;14.40;99.90;;;;;;5018054;28;20037;-68
2023/08/28 05:48:14;;;;;;;6.95;6.35;;;14.40;99.90;;;;;;5000968;28;20513;-63
2023/08/28 05:50:44;;;;;;;8.65;5.53;;;14.40;99.90;;;;;;5002617;28;20042;-62
2023/08/28 05:53:11;;;;;;;6.25;5.65;;;14.40;99.90;;;;;;5003910;28;20089;-65
2023/08/28 05:55:38;;;;;;;6.13;5.63;;;14.40;99.90;;;;;;5006043;28;20076;-65
2023/08/28 05:58:05;;;;;;;4.70;4.25;;;14.40;99.90;;;;;;5003667;28;20054;-62
2023/08/28 06:00:33;;;;;;;6.32;4.60;;;14.40;99.90;;;;;;5004540;28;20399;-62
2023/08/28 06:03:00;;;;;;;3.92;3.53;;;14.40;99.90;;;;;;5018663;28;20141;-66
2023/08/28 06:05:27;;;;;;;6.68;3.42;;;14.40;99.90;;;;;;5022443;28;20046;-67
2023/08/28 06:07:54;;;;;;;4.03;3.60;;;14.40;99.90;;;;;;5004980;28;20618;-69
2023/08/28 06:10:22;;;;;;;3.95;3.55;;;14.40;99.90;;;;;;5004443;28;20034;-62
2023/08/28 06:12:50;;;;;;;4.05;3.58;;;14.40;99.90;;;;;;5003027;28;20285;-65
2023/08/28 06:15:18;;;;;;;6.45;3.25;;;14.30;99.90;;;;;;5002591;28;20347;-71
2023/08/28 06:17:46;;;;;;;6.45;3.22;;;14.30;99.90;;;;;;5017899;28;20065;-66
2023/08/28 06:20:13;;;;;;;8.85;4.07;;;14.30;99.90;;;;;;5001224;28;20053;-67
2023/08/28 06:22:43;;;;;;;3.38;3.08;;;14.30;99.90;;;;;;5004393;28;20050;-63
2023/08/28 06:25:11;;;;;;;2.95;2.58;;;14.30;99.90;;;;;;4998372;28;20053;-63
2023/08/28 06:27:38;;;;;;;2.70;2.45;;;14.30;99.90;;;;;;5003164;28;20041;-64
2023/08/28 06:30:06;;;;;;;7.63;4.72;;;14.30;99.90;;;;;;4999452;28;20046;-61
2023/08/28 06:32:34;;;;;;;9.63;6.25;;;14.40;99.90;;;;;;5017223;28;20045;-65
2023/08/28 06:35:01;;;;;;;11.02;6.53;;;14.40;99.90;;;;;;5001581;28;20033;-66
2023/08/28 06:37:28;;;;;;;12.80;7.10;;;14.40;99.90;;;;;;5004882;28;20046;-65
2023/08/28 06:39:55;;;;;;;7.35;5.75;;;14.40;99.90;;;;;;5003936;28;20069;-69
2023/08/28 06:42:22;;;;;;;19.42;7.00;;;14.50;99.90;;;;;;5002176;28;20112;-63
2023/08/28 06:44:50;;;;;;;9.98;5.53;;;14.50;99.90;;;;;;5019196;28;20057;-64
2023/08/28 06:47:17;;;;;;;6.90;4.90;;;14.60;99.90;;;;;;5003398;28;20081;-73
2023/08/28 06:49:44;;;;;;;7.25;6.00;;;14.60;99.90;;;;;;5005578;28;20517;-69
2023/08/28 06:52:11;;;;;;;10.52;6.20;;;14.60;99.90;;;;;;5003359;28;20062;-69
2023/08/28 06:54:38;;;;;;;8.73;7.10;;;14.60;99.90;;;;;;5008937;28;20046;-69
2023/08/28 06:57:08;;;;;;;18.88;8.23;;;14.60;99.90;;;;;;5004287;28;20069;-60
2023/08/28 06:59:35;;;;;;;13.95;7.70;;;14.60;99.90;;;;;;5005635;28;20126;-64
2023/08/28 07:02:01;;;;;;;10.38;7.15;;;14.50;99.90;;;;;;5005037;28;20029;-64
2023/08/28 07:04:28;;;;;;;7.82;7.05;;;14.50;99.90;;;;;;5007046;28;20267;-67
2023/08/28 07:06:56;;;;;;;14.18;8.15;;;14.50;99.90;;;;;;5006091;28;20438;-63
2023/08/28 07:09:22;;;;;;;8.35;6.45;;;14.60;99.90;;;;;;5007272;28;20042;-63
2023/08/28 07:11:49;;;;;;;6.95;4.90;;;14.60;99.90;;;;;;5006717;28;20096;-63
2023/08/28 07:14:16;;;;;;;7.00;5.20;;;14.60;99.90;;;;;;5007237;28;20042;-66
2023/08/28 07:16:43;;;;;;;10.63;5.95;;;14.60;99.90;;;;;;5006685;28;20458;-66
2023/08/28 07:19:10;;;;;;;7.03;4.88;;;14.60;99.90;;;;;;5009429;28;20045;-72
2023/08/28 07:21:37;;;;;;;5.38;4.88;;;14.70;99.90;;;;;;5011582;28;20050;-67
2023/08/28 07:24:04;;;;;;;5.40;4.90;;;14.70;99.90;;;;;;5006657;28;20034;-65
2023/08/28 07:26:32;;;;;;;7.93;5.13;;;14.70;99.90;;;;;;5010107;28;20390;-63
2023/08/28 07:28:58;;;;;;;6.30;5.63;;;14.70;99.90;;;;;;5015244;28;20091;-65
2023/08/28 07:31:25;;;;;;;6.32;5.72;;;14.70;99.90;;;;;;5013785;28;20038;-65
2023/08/28 07:33:53;;;;;;;9.13;5.28;;;14.70;99.90;;;;;;5013339;28;20045;-64
2023/08/28 07:36:22;;;;;;;5.72;5.15;;;14.70;99.90;;;;;;5015432;28;20049;-68
2023/08/28 07:38:49;;;;;;;6.63;6.03;;;14.70;99.90;;;;;;5016139;28;20084;-62
2023/08/28 07:41:20;;;;;;;7.75;5.80;;;14.80;99.90;;;;;;5011746;28;20045;-64
2023/08/28 07:43:48;;;;;;;7.60;6.05;;;14.80;99.90;;;;;;5011964;28;20045;-62
2023/08/28 07:46:14;;;;;;;4.18;3.78;;;14.80;99.90;;;;;;5011813;28;20092;-65
2023/08/28 07:48:42;;;;;;;9.77;3.97;;;14.70;99.90;;;;;;5007021;28;20068;-64
2023/08/28 07:51:11;;;;;;;5.35;3.30;;;14.70;99.90;;;;;;5008379;28;20132;-62
2023/08/28 07:53:39;;;;;;;5.38;3.50;;;14.70;99.90;;;;;;5014795;28;20434;-66
2023/08/28 07:56:06;;;;;;;6.45;4.70;;;14.70;99.90;;;;;;5002080;28;20515;-67
2023/08/28 07:58:33;;;;;;;4.45;3.53;;;14.70;99.90;;;;;;5009242;28;20092;-62
2023/08/28 08:01:00;;;;;;;11.02;5.32;;;14.70;99.90;;;;;;5007906;28;20048;-63
2023/08/28 08:03:27;;;;;;;6.30;4.05;;;14.70;99.90;;;;;;5016085;28;20554;-63
2023/08/28 08:05:55;;;;;;;9.23;4.60;;;14.70;99.90;;;;;;5008449;28;20046;-64
2023/08/28 08:08:22;;;;;;;4.45;3.55;;;14.70;99.90;;;;;;5009895;28;20553;-66
2023/08/28 08:10:49;;;;;;;3.05;2.75;;;14.70;99.90;;;;;;5012697;28;20526;-66
2023/08/28 08:13:17;;;;;;;6.43;3.35;;;14.70;99.90;;;;;;5009271;28;20269;-64
2023/08/28 08:15:44;;;;;;;3.35;3.05;;;14.70;99.90;;;;;;5012582;28;20053;-66
2023/08/28 08:18:11;;;;;;;4.07;3.78;;;14.60;99.90;;;;;;5010794;28;20534;-64
2023/08/28 08:20:38;;;;;;;3.80;3.35;;;14.70;99.90;;;;;;5007899;28;20517;-61
2023/08/28 08:23:05;;;;;;;4.20;3.40;;;14.80;99.90;;;;;;5012243;28;20428;-65
2023/08/28 08:25:33;;;;;;;3.88;3.00;;;14.90;99.90;;;;;;5011557;28;20048;-68
2023/08/28 08:28:02;;;;;;;4.57;3.88;;;14.90;99.90;;;;;;5011127;28;20471;-62
2023/08/28 08:30:30;;;;;;;4.53;2.88;;;15.10;99.90;;;;;;5003989;28;20046;-67
2023/08/28 08:32:57;;;;;;;3.45;2.97;;;15.10;99.90;;;;;;5011820;28;20092;-64
2023/08/28 08:35:24;;;;;;;3.30;2.30;;;15.20;99.90;;;;;;5013919;28;20041;-64
2023/08/28 08:37:52;;;;;;;4.22;3.35;;;15.30;99.90;;;;;;5011569;28;20133;-65
2023/08/28 08:40:25;;;;;;;2.83;2.60;;;15.30;99.90;;;;;;5013259;28;20430;-67
2023/08/28 08:42:53;;;;;;;3.28;2.78;;;15.30;99.90;;;;;;5006683;28;20126;-73
2023/08/28 08:45:30;;;;;;;2.72;2.35;;;15.30;99.90;;;;;;5005644;28;21753;-64
2023/08/28 08:47:58;;;;;;;3.30;3.00;;;15.30;99.90;;;;;;5009858;28;20045;-62
2023/08/28 08:50:26;;;;;;;2.85;2.20;;;15.40;99.90;;;;;;5006053;28;20160;-63
2023/08/28 08:52:57;;;;;;;2.67;2.47;;;15.50;99.90;;;;;;5009761;28;20450;-68
2023/08/28 08:55:40;;;;;;;3.20;2.78;;;15.60;99.90;;;;;;5012467;28;20116;-62
2023/08/28 08:58:11;;;;;;;3.30;3.00;;;15.80;99.90;;;;;;5009453;28;20050;-71
2023/08/28 09:00:43;;;;;;;4.72;2.63;;;15.80;99.90;;;;;;5012623;28;20100;-65
2023/08/28 09:03:10;;;;;;;3.10;2.90;;;15.80;99.90;;;;;;5005638;28;20152;-65
2023/08/28 09:05:38;;;;;;;3.75;3.05;;;15.90;99.90;;;;;;5010298;28;20046;-63
2023/08/28 09:08:06;;;;;;;3.78;2.10;;;16.00;99.90;;;;;;5012885;28;20077;-66
2023/08/28 09:10:34;;;;;;;2.55;2.35;;;16.10;99.90;;;;;;5007155;28;20053;-64
2023/08/28 09:13:01;;;;;;;3.45;2.28;;;16.10;99.90;;;;;;5010116;28;20038;-62
2023/08/28 09:15:28;;;;;;;1.63;1.52;;;16.20;99.90;;;;;;5003431;28;20129;-63
2023/08/28 09:17:59;;;;;;;1.85;1.75;;;16.20;99.90;;;;;;5013388;28;20042;-63
2023/08/28 09:20:26;;;;;;;2.00;1.90;;;16.20;99.90;;;;;;5005832;28;20539;-68
2023/08/28 09:22:54;;;;;;;1.73;1.63;;;16.30;99.90;;;;;;5010309;28;20137;-64
2023/08/28 09:25:24;;;;;;;1.98;1.50;;;16.40;99.90;;;;;;5010852;28;20568;-64
2023/08/28 09:27:53;;;;;;;1.98;1.88;;;16.40;99.90;;;;;;5007369;28;20364;-63
2023/08/28 09:30:36;;;;;;;2.38;2.05;;;16.50;99.90;;;;;;5004846;28;20123;-62
2023/08/28 09:33:07;;;;;;;2.65;1.67;;;16.60;99.90;;;;;;5008953;28;20088;-65
2023/08/28 09:35:41;;;;;;;1.85;1.52;;;16.60;99.90;;;;;;5005261;28;20099;-62
2023/08/28 09:38:09;;;;;;;2.30;1.60;;;16.60;99.90;;;;;;5012372;28;20084;-66
2023/08/28 09:40:41;;;;;;;2.17;1.85;;;16.60;99.90;;;;;;5013365;28;20053;-66
2023/08/28 09:43:12;;;;;;;2.25;1.40;;;16.40;99.90;;;;;;5006204;28;20046;-62
2023/08/28 09:45:40;;;;;;;1.48;1.38;;;16.30;99.90;;;;;;5004731;28;20050;-75
2023/08/28 09:48:08;;;;;;;3.38;1.70;;;16.20;99.90;;;;;;5014431;28;20088;-66
2023/08/28 09:50:39;;;;;;;3.22;1.58;;;16.20;99.90;;;;;;5011827;28;20046;-70
2023/08/28 09:53:11;;;;;;;1.88;1.25;;;16.20;99.90;;;;;;5010115;28;20650;-63
2023/08/28 09:55:59;;;;;;;1.58;1.20;;;16.10;99.90;;;;;;5011143;28;20042;-62
2023/08/28 09:58:27;;;;;;;1.10;1.10;;;16.20;99.90;;;;;;5010270;28;20115;-67
2023/08/28 10:00:56;;;;;;;1.45;1.35;;;16.20;99.90;;;;;;5009057;28;20042;-72
2023/08/28 10:03:25;;;;;;;1.88;1.35;;;16.30;99.90;;;;;;5005728;28;20059;-66
2023/08/28 10:05:54;;;;;;;1.92;1.73;;;16.40;99.90;;;;;;5009044;28;20173;-69
2023/08/28 10:08:27;;;;;;;2.60;1.48;;;16.50;99.90;;;;;;5006896;28;20445;-65
2023/08/28 10:10:56;;;;;;;1.50;1.40;;;16.50;99.90;;;;;;5011105;28;20491;-66
2023/08/28 10:13:24;;;;;;;2.38;1.75;;;16.50;99.90;;;;;;5013623;28;20033;-64
2023/08/28 10:15:57;;;;;;;2.05;1.67;;;16.50;99.90;;;;;;5010888;28;20115;-66
2023/08/28 10:18:38;;;;;;;2.60;1.50;;;16.60;99.90;;;;;;5006323;28;20045;-63
2023/08/28 10:21:06;;;;;;;3.83;2.22;;;16.60;99.90;;;;;;5007482;28;20038;-62
2023/08/28 10:23:37;;;;;;;2.13;1.92;;;16.50;99.90;;;;;;5012928;28;20072;-67
2023/08/28 10:26:06;;;;;;;2.88;2.45;;;16.40;99.90;;;;;;5013752;28;20066;-63
2023/08/28 10:28:35;;;;;;;2.63;2.22;;;16.50;99.90;;;;;;5014336;28;20062;-67
2023/08/28 10:31:05;;;;;;;2.28;2.00;;;16.50;99.90;;;;;;5015992;28;20297;-63
2023/08/28 10:33:34;;;;;;;1.67;1.58;;;16.60;99.90;;;;;;5014534;28;20483;-75
2023/08/28 10:36:02;;;;;;;1.95;1.85;;;16.70;99.90;;;;;;5014781;28;20052;-69
2023/08/28 10:38:30;;;;;;;2.58;2.15;;;16.70;99.90;;;;;;5008209;28;20054;-67
2023/08/28 10:40:59;;;;;;;2.00;1.90;;;16.80;99.90;;;;;;5009826;28;20041;-62
2023/08/28 10:43:27;;;;;;;1.63;1.52;;;17.00;99.90;;;;;;5001572;28;20042;-65
2023/08/28 10:45:58;;;;;;;1.45;1.35;;;17.20;99.90;;;;;;5011057;28;20458;-67
2023/08/28 10:48:25;;;;;;;4.10;1.98;;;17.20;99.90;;;;;;5018351;28;20045;-64
2023/08/28 10:50:57;;;;;;;1.77;1.67;;;17.30;99.90;;;;;;5004236;28;20104;-70
2023/08/28 10:53:26;;;;;;;1.50;1.40;;;17.30;99.90;;;;;;5012229;28;20107;-66
2023/08/28 10:55:59;;;;;;;4.22;1.50;;;17.40;99.90;;;;;;5008388;28;20056;-69
2023/08/28 10:58:30;;;;;;;1.90;1.67;;;17.30;99.90;;;;;;5009027;28;20072;-69
2023/08/28 11:01:18;;;;;;;3.40;1.50;;;17.30;99.90;;;;;;5010309;28;20049;-64
2023/08/28 11:03:51;;;;;;;3.40;1.80;;;17.50;99.90;;;;;;5012592;28;20038;-64
2023/08/28 11:06:42;;;;;;;1.77;1.50;;;17.50;99.90;;;;;;5007108;28;20353;-64
2023/08/28 11:09:28;;;;;;;1.77;1.50;;;17.40;99.90;;;;;;5007740;28;20108;-63
2023/08/28 11:11:57;;;;;;;2.33;1.40;;;17.40;99.90;;;;;;5019195;28;20049;-63
2023/08/28 11:14:54;;;;;;;2.60;1.83;;;17.30;99.90;;;;;;5009469;28;20048;-64
2023/08/28 11:17:22;;;;;;;2.28;1.63;;;17.30;99.90;;;;;;5005052;28;20054;-64
2023/08/28 11:19:54;;;;;;;2.22;1.60;;;17.30;99.90;;;;;;5011178;28;20049;-67
2023/08/28 11:22:40;;;;;;;2.00;1.65;;;17.40;99.90;;;;;;5008078;28;20037;-67
2023/08/28 11:25:12;;;;;;;3.13;1.33;;;17.60;99.90;;;;;;5011087;28;20061;-75
2023/08/28 11:27:46;;;;;;;1.60;1.50;;;17.50;99.90;;;;;;5011993;28;20411;-67
2023/08/28 11:30:21;;;;;;;3.03;1.45;;;17.50;99.90;;;;;;5013638;28;20349;-64
2023/08/28 11:32:51;;;;;;;3.38;1.92;;;17.30;99.90;;;;;;5011875;28;20491;-71
2023/08/28 11:35:20;;;;;;;2.78;1.50;;;17.40;99.90;;;;;;5013291;28;20049;-67
2023/08/28 11:37:55;;;;;;;3.47;1.38;;;17.30;99.90;;;;;;5002616;28;20571;-67
2023/08/28 11:40:24;;;;;;;1.85;1.48;;;17.30;99.90;;;;;;5010570;28;20470;-65
2023/08/28 11:43:03;;;;;;;1.45;1.15;;;17.10;99.90;;;;;;5011078;28;20050;-67
2023/08/28 11:45:30;;;;;;;1.92;1.65;;;17.20;99.90;;;;;;5016029;28;20037;-66
2023/08/28 11:48:04;;;;;;;2.67;1.70;;;17.20;99.90;;;;;;5008124;28;20459;-67
2023/08/28 11:50:31;;;;;;;1.60;1.48;;;17.10;99.90;;;;;;5011260;28;20044;-67
2023/08/28 11:52:58;;;;;;;1.50;1.10;;;17.20;99.90;;;;;;5017235;28;20045;-65
2023/08/28 11:55:26;;;;;;;3.30;1.20;;;17.30;99.90;;;;;;5008578;28;20042;-62
2023/08/28 11:57:53;;;;;;;3.58;1.67;;;17.50;99.90;;;;;;5008917;28;20281;-66
2023/08/28 12:00:21;;;;;;;2.78;1.40;;;17.50;99.90;;;;;;5012523;28;20093;-66
2023/08/28 12:02:48;;;;;;;3.63;1.42;;;17.50;99.90;;;;;;5011330;28;20069;-67
2023/08/28 12:05:18;;;;;;;2.33;1.50;;;17.40;99.90;;;;;;5006967;28;20060;-64
2023/08/28 12:07:47;;;;;;;2.40;1.58;;;17.30;99.90;;;;;;5011241;28;20437;-64
2023/08/28 12:10:15;;;;;;;2.03;1.50;;;17.20;99.90;;;;;;5011750;28;20467;-66
2023/08/28 12:12:43;;;;;;;2.50;1.08;;;17.10;99.90;;;;;;5006651;28;20053;-68
2023/08/28 12:15:11;;;;;;;2.95;1.42;;;17.10;99.90;;;;;;5010064;28;20050;-62
2023/08/28 12:17:38;;;;;;;4.25;2.13;;;17.00;99.90;;;;;;5011859;28;20121;-63
2023/08/28 12:20:16;;;;;;;2.88;1.40;;;17.30;99.90;;;;;;5010509;28;20042;-67
2023/08/28 12:22:46;;;;;;;1.70;1.60;;;17.40;99.90;;;;;;5011117;28;20435;-67
2023/08/28 12:25:13;;;;;;;;;;;17.50;99.90;;;;;;5014141;28;20108;-72
2023/08/28 12:27:40;;;;;;;2.90;1.83;;;17.50;99.90;;;;;;5010611;28;19972;-62
2023/08/28 12:30:17;;;;;;;2.10;1.52;;;17.60;99.90;;;;;;5010587;28;20049;-65
2023/08/28 12:32:51;;;;;;;1.60;1.33;;;17.60;99.90;;;;;;5005202;28;20332;-68
2023/08/28 12:35:22;;;;;;;1.55;1.38;;;17.70;99.90;;;;;;5005978;28;20121;-63
2023/08/28 12:37:51;;;;;;;1.95;1.63;;;17.80;99.90;;;;;;5004786;28;20045;-66
2023/08/28 12:40:19;;;;;;;2.60;1.90;;;17.80;99.90;;;;;;5003612;28;20038;-66
2023/08/28 12:42:46;;;;;;;2.10;1.58;;;17.90;99.90;;;;;;5000044;28;20315;-68
2023/08/28 12:45:13;;;;;;;2.28;1.50;;;18.00;99.90;;;;;;5004622;28;20053;-62
2023/08/28 12:47:41;;;;;;;2.10;1.33;;;18.10;99.90;;;;;;5004411;28;20045;-66
2023/08/28 12:50:09;;;;;;;3.95;1.50;;;18.10;99.90;;;;;;5003890;28;20545;-64
2023/08/28 12:52:37;;;;;;;2.92;1.20;;;18.20;99.90;;;;;;5004374;28;20050;-65
2023/08/28 12:55:04;;;;;;;2.67;1.40;;;18.30;99.90;;;;;;5006258;28;20120;-63